Time;durP1;ratioP1;P1;durP2;ratioP2;P2;SDS_P1;SDS_P2;PMS_P1;PMS_P2;Temp;Humidity;BMP_temperature;BMP_pressure;BME280_temperature;BME280_humidity;BME280_pressure;Samples;Min_cycle;Max_cycle;Signal;HPM_P1;HPM_P2
2022/07/27 00:00:33;;;;;;;7.77;6.97;;;;;;;;;;772298;177;920025;-57
2022/07/27 00:02:58;;;;;;;16.70;7.10;;;;;;;;;;757315;185;919241;-64
2022/07/27 00:05:24;;;;;;;10.27;7.37;;;;;;;;;;771100;180;916789;-62
2022/07/27 00:07:50;;;;;;;8.47;7.17;;;;;;;;;;771724;179;940052;-62
2022/07/27 00:10:16;;;;;;;9.50;7.47;;;;;;;;;;770610;181;718540;-61
2022/07/27 00:12:42;;;;;;;10.60;7.70;;;;;;;;;;767695;178;918924;-62
2022/07/27 00:15:08;;;;;;;14.00;8.53;;;;;;;;;;771779;178;920212;-63
2022/07/27 00:17:34;;;;;;;10.47;6.80;;;;;;;;;;778744;177;919142;-62
2022/07/27 00:20:00;;;;;;;12.45;8.20;;;;;;;;;;774077;177;919544;-62
2022/07/27 00:22:26;;;;;;;10.23;7.50;;;;;;;;;;769234;178;919912;-62
2022/07/27 00:24:52;;;;;;;9.77;8.87;;;;;;;;;;773593;179;819065;-58
2022/07/27 00:27:17;;;;;;;12.30;8.33;;;;;;;;;;775010;179;919082;-57
2022/07/27 00:29:44;;;;;;;9.87;8.87;;;;;;;;;;754757;184;927176;-57
2022/07/27 00:32:09;;;;;;;13.45;10.68;;;;;;;;;;768914;180;916907;-62
2022/07/27 00:34:35;;;;;;;13.93;10.50;;;;;;;;;;777848;181;918425;-57
2022/07/27 00:37:01;;;;;;;12.77;10.10;;;;;;;;;;775075;176;917501;-57
2022/07/27 00:39:27;;;;;;;10.40;9.30;;;;;;;;;;775654;180;910711;-62
2022/07/27 00:41:52;;;;;;;18.43;9.73;;;;;;;;;;769800;181;919473;-58
2022/07/27 00:44:23;;;;;;;15.03;9.87;;;;;;;;;;764096;181;918402;-57
2022/07/27 00:46:49;;;;;;;21.50;9.23;;;;;;;;;;774312;178;918882;-62
2022/07/27 00:49:15;;;;;;;13.90;8.30;;;;;;;;;;775498;180;919187;-62
2022/07/27 00:51:41;;;;;;;18.50;7.20;;;;;;;;;;779957;180;919325;-64
2022/07/27 00:54:07;;;;;;;9.13;6.40;;;;;;;;;;761345;182;917959;-64
2022/07/27 00:56:32;;;;;;;10.13;7.20;;;;;;;;;;771018;181;824198;-57
2022/07/27 00:58:58;;;;;;;8.67;7.77;;;;;;;;;;768061;181;818578;-57
2022/07/27 01:01:24;;;;;;;8.40;7.50;;;;;;;;;;771690;180;918990;-62
2022/07/27 01:03:50;;;;;;;10.63;8.20;;;;;;;;;;776485;180;915480;-56
2022/07/27 01:06:16;;;;;;;13.15;8.70;;;;;;;;;;779558;181;813752;-62
2022/07/27 01:08:42;;;;;;;13.13;9.33;;;;;;;;;;775572;179;909164;-61
2022/07/27 01:11:08;;;;;;;12.50;11.20;;;;;;;;;;772973;177;919120;-60
2022/07/27 01:13:33;;;;;;;21.00;13.00;;;;;;;;;;772342;177;921673;-60
2022/07/27 01:15:59;;;;;;;15.60;11.30;;;;;;;;;;780021;181;919231;-56
2022/07/27 01:18:26;;;;;;;20.17;14.23;;;;;;;;;;772240;180;943214;-61
2022/07/27 01:20:52;;;;;;;16.10;14.43;;;;;;;;;;773698;180;917598;-57
2022/07/27 01:23:17;;;;;;;19.10;15.97;;;;;;;;;;779719;179;918417;-56
2022/07/27 01:25:43;;;;;;;20.83;16.27;;;;;;;;;;770190;178;926643;-55
2022/07/27 01:28:09;;;;;;;21.50;17.00;;;;;;;;;;768265;179;931059;-57
2022/07/27 01:30:35;;;;;;;29.33;15.40;;;;;;;;;;767141;181;917388;-57
2022/07/27 01:33:02;;;;;;;25.93;17.27;;;;;;;;;;771140;180;919167;-61
2022/07/27 01:35:28;;;;;;;23.53;15.97;;;;;;;;;;773029;180;918432;-57
2022/07/27 01:37:53;;;;;;;23.17;16.90;;;;;;;;;;775492;180;819090;-60
2022/07/27 01:40:19;;;;;;;20.60;15.40;;;;;;;;;;773743;180;817286;-57
2022/07/27 01:42:45;;;;;;;27.98;16.25;;;;;;;;;;769440;180;918986;-63
2022/07/27 01:45:11;;;;;;;19.43;15.00;;;;;;;;;;774119;180;919715;-61
2022/07/27 01:47:37;;;;;;;20.90;16.87;;;;;;;;;;774084;179;709417;-58
2022/07/27 01:50:03;;;;;;;24.10;17.70;;;;;;;;;;773347;180;917306;-56
2022/07/27 01:52:29;;;;;;;23.43;15.30;;;;;;;;;;774891;177;816281;-56
2022/07/27 01:54:54;;;;;;;16.83;13.93;;;;;;;;;;780405;180;915243;-62
2022/07/27 01:57:20;;;;;;;21.20;15.17;;;;;;;;;;770520;179;916563;-61
2022/07/27 01:59:46;;;;;;;19.47;13.30;;;;;;;;;;760404;180;919283;-60
2022/07/27 02:02:14;;;;;;;16.73;14.20;;;;;;;;;;772325;180;918953;-57
2022/07/27 02:04:38;;;;;;;16.30;12.87;;;;;;;;;;778906;179;917835;-62
2022/07/27 02:07:04;;;;;;;19.47;13.27;;;;;;;;;;773637;179;911529;-56
2022/07/27 02:09:30;;;;;;;21.30;13.17;;;;;;;;;;768163;180;918809;-61
2022/07/27 02:14:27;;;;;;;17.87;12.47;;;;;;;;;;773242;180;918834;-56
2022/07/27 02:16:53;;;;;;;20.87;15.47;;;;;;;;;;760561;182;919220;-56
2022/07/27 02:19:19;;;;;;;19.30;12.47;;;;;;;;;;774548;180;921822;-61
2022/07/27 02:21:45;;;;;;;16.23;12.47;;;;;;;;;;772086;181;918280;-56
2022/07/27 02:24:10;;;;;;;14.23;12.73;;;;;;;;;;765400;181;918626;-61
2022/07/27 02:26:36;;;;;;;15.90;12.15;;;;;;;;;;771165;180;817132;-62
2022/07/27 02:29:02;;;;;;;19.80;13.23;;;;;;;;;;783745;180;817081;-61
2022/07/27 02:31:28;;;;;;;21.70;13.43;;;;;;;;;;774361;178;918373;-56
2022/07/27 02:33:54;;;;;;;20.23;15.10;;;;;;;;;;771295;180;922649;-60
2022/07/27 02:36:20;;;;;;;18.50;14.53;;;;;;;;;;779536;179;915183;-60
2022/07/27 02:38:45;;;;;;;15.87;12.40;;;;;;;;;;775354;180;918957;-61
2022/07/27 02:41:11;;;;;;;20.80;13.80;;;;;;;;;;773224;180;918826;-56
2022/07/27 02:43:37;;;;;;;18.90;12.50;;;;;;;;;;772843;177;920949;-56
2022/07/27 02:46:03;;;;;;;18.90;13.20;;;;;;;;;;771177;180;919469;-61
2022/07/27 02:48:29;;;;;;;18.17;13.90;;;;;;;;;;773649;181;923213;-61
2022/07/27 02:50:55;;;;;;;23.77;13.73;;;;;;;;;;773481;178;926269;-61
2022/07/27 02:53:20;;;;;;;16.90;14.60;;;;;;;;;;777645;178;920871;-56
2022/07/27 02:55:46;;;;;;;27.80;14.20;;;;;;;;;;769622;178;921628;-57
2022/07/27 02:58:12;;;;;;;30.67;13.03;;;;;;;;;;764694;182;920942;-56
2022/07/27 03:00:38;;;;;;;16.87;14.17;;;;;;;;;;781138;180;817543;-56
2022/07/27 03:03:04;;;;;;;19.00;14.60;;;;;;;;;;773093;181;918518;-56
2022/07/27 03:05:30;;;;;;;23.67;14.03;;;;;;;;;;770149;178;879419;-56
2022/07/27 03:07:56;;;;;;;16.80;13.37;;;;;;;;;;783116;180;817865;-61
2022/07/27 03:10:21;;;;;;;17.50;13.43;;;;;;;;;;769880;180;818097;-60
2022/07/27 03:12:47;;;;;;;18.40;13.03;;;;;;;;;;762103;181;916090;-54
2022/07/27 03:15:13;;;;;;;22.43;14.20;;;;;;;;;;770004;182;908968;-60
2022/07/27 03:17:39;;;;;;;20.90;15.17;;;;;;;;;;770172;181;918118;-61
2022/07/27 03:20:05;;;;;;;16.83;13.83;;;;;;;;;;760527;181;913462;-60
2022/07/27 03:22:32;;;;;;;28.12;14.50;;;;;;;;;;761294;182;917808;-55
2022/07/27 03:24:57;;;;;;;16.67;13.60;;;;;;;;;;775842;180;920589;-56
2022/07/27 03:27:23;;;;;;;20.13;15.57;;;;;;;;;;772904;178;919133;-56
2022/07/27 03:29:49;;;;;;;18.40;13.43;;;;;;;;;;773312;178;874588;-56
2022/07/27 03:32:15;;;;;;;19.27;15.17;;;;;;;;;;776650;180;817136;-56
2022/07/27 03:34:40;;;;;;;16.20;14.40;;;;;;;;;;773800;180;918463;-61
2022/07/27 03:37:06;;;;;;;19.30;14.70;;;;;;;;;;772230;180;919007;-56
2022/07/27 03:39:33;;;;;;;23.58;15.25;;;;;;;;;;777534;177;822057;-56
2022/07/27 03:41:58;;;;;;;23.77;14.87;;;;;;;;;;762681;182;918750;-55
2022/07/27 03:44:24;;;;;;;17.10;14.67;;;;;;;;;;764249;181;915138;-60
2022/07/27 03:46:50;;;;;;;26.67;17.00;;;;;;;;;;770560;180;892059;-60
2022/07/27 03:49:16;;;;;;;18.97;13.87;;;;;;;;;;777103;180;818199;-59
2022/07/27 03:51:42;;;;;;;23.05;14.82;;;;;;;;;;772098;180;1014144;-60
2022/07/27 03:54:08;;;;;;;20.50;15.90;;;;;;;;;;775872;178;816681;-61
2022/07/27 03:56:34;;;;;;;20.67;15.77;;;;;;;;;;775269;181;918667;-56
2022/07/27 03:58:59;;;;;;;18.50;14.77;;;;;;;;;;769002;181;849919;-56
2022/07/27 04:01:25;;;;;;;17.53;15.43;;;;;;;;;;774671;180;908906;-56
2022/07/27 04:03:51;;;;;;;19.80;15.53;;;;;;;;;;778394;180;849118;-63
2022/07/27 04:06:17;;;;;;;25.67;15.40;;;;;;;;;;773799;177;918375;-56
2022/07/27 04:08:43;;;;;;;19.27;14.93;;;;;;;;;;768649;180;915702;-58
2022/07/27 04:11:09;;;;;;;19.15;14.65;;;;;;;;;;773740;178;909079;-56
2022/07/27 04:13:34;;;;;;;19.87;13.30;;;;;;;;;;783252;177;918996;-59
2022/07/27 04:16:00;;;;;;;24.67;15.40;;;;;;;;;;777707;177;912751;-56
2022/07/27 04:18:26;;;;;;;19.47;14.83;;;;;;;;;;778483;180;815423;-59
2022/07/27 04:20:52;;;;;;;23.23;15.87;;;;;;;;;;772249;181;816527;-58
2022/07/27 04:23:18;;;;;;;20.33;15.00;;;;;;;;;;764654;180;915902;-60
2022/07/27 04:25:44;;;;;;;16.07;13.57;;;;;;;;;;775029;180;919312;-55
2022/07/27 04:28:09;;;;;;;20.30;14.87;;;;;;;;;;781130;177;818247;-55
2022/07/27 04:30:35;;;;;;;19.10;15.97;;;;;;;;;;776215;178;791619;-55
2022/07/27 04:33:02;;;;;;;24.03;14.67;;;;;;;;;;775468;179;816912;-55
2022/07/27 04:35:27;;;;;;;18.67;15.20;;;;;;;;;;774360;177;927098;-58
2022/07/27 04:37:53;;;;;;;22.33;15.20;;;;;;;;;;772603;181;814961;-54
2022/07/27 04:40:19;;;;;;;32.07;17.40;;;;;;;;;;770172;179;921648;-61
2022/07/27 04:42:45;;;;;;;17.48;14.40;;;;;;;;;;756461;182;900078;-55
2022/07/27 04:45:11;;;;;;;17.47;15.50;;;;;;;;;;773923;177;918344;-58
2022/07/27 04:47:37;;;;;;;25.37;17.10;;;;;;;;;;767452;180;852972;-55
2022/07/27 04:50:03;;;;;;;26.07;19.20;;;;;;;;;;775200;179;832575;-58
2022/07/27 04:52:28;;;;;;;23.10;18.23;;;;;;;;;;770450;180;919102;-54
2022/07/27 04:54:54;;;;;;;26.03;20.17;;;;;;;;;;773430;177;918029;-58
2022/07/27 04:57:21;;;;;;;23.13;17.50;;;;;;;;;;771165;178;922276;-58
2022/07/27 04:59:46;;;;;;;23.27;19.00;;;;;;;;;;769334;180;918862;-56
2022/07/27 05:02:12;;;;;;;20.83;17.57;;;;;;;;;;759779;182;823615;-57
2022/07/27 05:04:38;;;;;;;24.00;18.83;;;;;;;;;;762034;178;919320;-58
2022/07/27 05:07:04;;;;;;;20.60;18.13;;;;;;;;;;771451;178;926478;-56
2022/07/27 05:09:29;;;;;;;21.83;17.13;;;;;;;;;;777857;181;918830;-55
2022/07/27 05:11:55;;;;;;;21.73;16.50;;;;;;;;;;773849;180;919324;-58
2022/07/27 05:14:22;;;;;;;19.60;16.27;;;;;;;;;;771782;180;817268;-55
2022/07/27 05:16:47;;;;;;;21.10;15.97;;;;;;;;;;772278;181;920123;-58
2022/07/27 05:19:13;;;;;;;17.90;14.50;;;;;;;;;;770358;180;931863;-58
2022/07/27 05:21:39;;;;;;;17.00;14.23;;;;;;;;;;773088;178;909706;-55
2022/07/27 05:24:05;;;;;;;19.40;14.50;;;;;;;;;;778104;180;922228;-56
2022/07/27 05:26:31;;;;;;;17.23;14.10;;;;;;;;;;773200;180;819798;-55
2022/07/27 05:28:56;;;;;;;18.13;13.33;;;;;;;;;;774706;179;917951;-58
2022/07/27 05:31:22;;;;;;;16.75;12.70;;;;;;;;;;774818;177;926716;-58
2022/07/27 05:33:48;;;;;;;17.83;12.70;;;;;;;;;;779687;180;916010;-58
2022/07/27 05:36:14;;;;;;;15.23;11.10;;;;;;;;;;773824;177;929086;-59
2022/07/27 05:38:40;;;;;;;16.80;10.57;;;;;;;;;;769232;179;920669;-58
2022/07/27 05:41:06;;;;;;;17.70;11.40;;;;;;;;;;780201;180;814773;-55
2022/07/27 05:43:32;;;;;;;17.50;10.37;;;;;;;;;;769651;180;812692;-58
2022/07/27 05:45:57;;;;;;;13.33;9.70;;;;;;;;;;766419;180;916894;-57
2022/07/27 05:48:23;;;;;;;13.93;10.83;;;;;;;;;;780271;178;919241;-55
2022/07/27 05:50:49;;;;;;;13.43;10.80;;;;;;;;;;770829;180;941037;-58
2022/07/27 05:53:15;;;;;;;11.63;8.10;;;;;;;;;;767714;177;919005;-58
2022/07/27 05:55:41;;;;;;;10.73;8.10;;;;;;;;;;772041;179;918679;-58
2022/07/27 05:58:07;;;;;;;10.53;8.00;;;;;;;;;;771726;180;814175;-56
2022/07/27 06:00:32;;;;;;;15.97;8.17;;;;;;;;;;768963;180;923643;-55
2022/07/27 06:02:58;;;;;;;8.53;7.13;;;;;;;;;;773296;180;819714;-57
2022/07/27 06:05:24;;;;;;;9.80;6.53;;;;;;;;;;779561;180;887929;-57
2022/07/27 06:10:22;;;;;;;12.77;6.30;;;;;;;;;;771807;180;916788;-55
2022/07/27 06:12:47;;;;;;;10.50;6.47;;;;;;;;;;772307;180;818018;-58
2022/07/27 06:15:13;;;;;;;6.13;4.73;;;;;;;;;;769824;180;817222;-56
2022/07/27 06:17:39;;;;;;;7.50;4.73;;;;;;;;;;768354;181;906081;-58
2022/07/27 06:20:06;;;;;;;6.97;4.80;;;;;;;;;;771741;180;916383;-56
2022/07/27 06:22:31;;;;;;;5.60;4.70;;;;;;;;;;778217;180;893882;-56
2022/07/27 06:24:57;;;;;;;5.87;3.90;;;;;;;;;;773873;180;916268;-57
2022/07/27 06:27:23;;;;;;;6.10;4.10;;;;;;;;;;772221;180;918936;-57
2022/07/27 06:29:49;;;;;;;5.80;4.40;;;;;;;;;;782280;180;630071;-57
2022/07/27 06:32:15;;;;;;;7.63;3.97;;;;;;;;;;776906;180;622559;-55
2022/07/27 06:34:41;;;;;;;4.30;3.47;;;;;;;;;;779258;179;632705;-61
2022/07/27 06:37:07;;;;;;;7.10;4.30;;;;;;;;;;780711;177;623292;-58
2022/07/27 06:39:33;;;;;;;7.73;4.70;;;;;;;;;;774661;179;627814;-58
2022/07/27 06:41:59;;;;;;;5.80;4.00;;;;;;;;;;770745;180;632460;-58
2022/07/27 06:44:25;;;;;;;4.30;3.43;;;;;;;;;;776128;180;628884;-57
2022/07/27 06:46:50;;;;;;;8.93;4.87;;;;;;;;;;782368;180;624850;-57
2022/07/27 06:49:16;;;;;;;5.30;3.23;;;;;;;;;;775581;180;616904;-58
2022/07/27 06:51:42;;;;;;;5.33;3.80;;;;;;;;;;776721;180;618668;-58
2022/07/27 06:54:08;;;;;;;4.70;3.30;;;;;;;;;;766350;181;635718;-58
2022/07/27 06:56:34;;;;;;;8.33;3.93;;;;;;;;;;776947;180;629502;-58
2022/07/27 06:59:00;;;;;;;8.43;4.37;;;;;;;;;;778941;181;633787;-56
2022/07/27 07:01:25;;;;;;;6.00;3.53;;;;;;;;;;775705;180;625120;-56
2022/07/27 07:03:51;;;;;;;6.60;3.07;;;;;;;;;;778847;180;622358;-55
2022/07/27 07:06:17;;;;;;;3.87;3.20;;;;;;;;;;774923;180;693750;-55
2022/07/27 07:08:43;;;;;;;40.07;5.00;;;;;;;;;;779209;178;625557;-55
2022/07/27 07:11:10;;;;;;;6.13;3.53;;;;;;;;;;782507;180;617151;-57
2022/07/27 07:13:35;;;;;;;4.90;3.40;;;;;;;;;;777195;180;624287;-55
2022/07/27 07:16:00;;;;;;;7.45;3.70;;;;;;;;;;766409;183;629567;-56
2022/07/27 07:18:26;;;;;;;7.87;3.33;;;;;;;;;;781270;181;640458;-57
2022/07/27 07:20:53;;;;;;;3.63;2.80;;;;;;;;;;778950;180;728949;-56
2022/07/27 07:23:18;;;;;;;4.47;2.87;;;;;;;;;;779753;180;658939;-57
2022/07/27 07:25:44;;;;;;;5.17;3.70;;;;;;;;;;769113;181;618666;-54
2022/07/27 07:28:10;;;;;;;4.43;3.00;;;;;;;;;;773639;178;641453;-55
2022/07/27 07:30:35;;;;;;;5.23;3.13;;;;;;;;;;775913;180;623832;-58
2022/07/27 07:33:01;;;;;;;3.33;3.03;;;;;;;;;;773503;176;912176;-55
2022/07/27 07:35:27;;;;;;;4.07;3.27;;;;;;;;;;769970;182;619326;-56
2022/07/27 07:37:53;;;;;;;5.20;3.27;;;;;;;;;;768161;178;657204;-58
2022/07/27 07:40:19;;;;;;;7.97;3.07;;;;;;;;;;778028;180;625257;-57
2022/07/27 07:42:49;;;;;;;4.10;3.20;;;;;;;;;;782354;180;626132;-55
2022/07/27 07:45:14;;;;;;;5.40;3.27;;;;;;;;;;778523;180;631488;-57
2022/07/27 07:47:40;;;;;;;5.27;3.10;;;;;;;;;;779563;178;624081;-55
2022/07/27 07:50:07;;;;;;;4.53;3.10;;;;;;;;;;784162;180;623226;-57
2022/07/27 07:52:33;;;;;;;4.50;2.93;;;;;;;;;;778624;179;623117;-56
2022/07/27 07:54:59;;;;;;;9.43;3.63;;;;;;;;;;774675;178;619158;-58
2022/07/27 07:57:25;;;;;;;7.80;3.23;;;;;;;;;;779675;180;627287;-58
2022/07/27 07:59:51;;;;;;;4.10;3.20;;;;;;;;;;782945;181;621944;-56
2022/07/27 08:02:19;;;;;;;19.43;3.33;;;;;;;;;;775118;180;638084;-58
2022/07/27 08:04:42;;;;;;;10.10;3.33;;;;;;;;;;779084;181;638007;-63
2022/07/27 08:07:08;;;;;;;5.90;3.40;;;;;;;;;;783592;180;628880;-58
2022/07/27 08:09:34;;;;;;;6.60;3.30;;;;;;;;;;778230;180;627725;-55
2022/07/27 08:12:00;;;;;;;4.00;2.73;;;;;;;;;;775834;180;615586;-56
2022/07/27 08:14:26;;;;;;;3.70;2.67;;;;;;;;;;782953;180;626306;-56
2022/07/27 08:16:52;;;;;;;5.53;3.63;;;;;;;;;;778595;180;620805;-58
2022/07/27 08:19:17;;;;;;;6.60;3.10;;;;;;;;;;774974;180;622146;-55
2022/07/27 08:21:43;;;;;;;5.07;3.30;;;;;;;;;;777274;179;639248;-56
2022/07/27 08:24:09;;;;;;;5.20;3.77;;;;;;;;;;775600;180;628722;-58
2022/07/27 08:26:35;;;;;;;5.20;3.10;;;;;;;;;;775443;179;628421;-55
2022/07/27 08:29:01;;;;;;;5.57;4.27;;;;;;;;;;764341;182;627621;-56
2022/07/27 08:31:27;;;;;;;9.53;4.03;;;;;;;;;;778904;181;616318;-60
2022/07/27 08:33:54;;;;;;;8.93;3.80;;;;;;;;;;777148;180;623143;-58
2022/07/27 08:36:20;;;;;;;14.40;4.67;;;;;;;;;;773957;179;789205;-57
2022/07/27 08:38:45;;;;;;;4.47;3.50;;;;;;;;;;780635;180;733530;-58
2022/07/27 08:41:11;;;;;;;6.97;3.73;;;;;;;;;;778872;179;632673;-54
2022/07/27 08:43:37;;;;;;;3.90;3.23;;;;;;;;;;774874;180;639482;-58
2022/07/27 08:46:03;;;;;;;9.03;4.13;;;;;;;;;;776570;180;636197;-56
2022/07/27 08:48:29;;;;;;;9.47;3.93;;;;;;;;;;780833;180;627899;-55
2022/07/27 08:50:55;;;;;;;4.47;3.83;;;;;;;;;;767147;181;627007;-57
2022/07/27 08:53:20;;;;;;;7.40;4.00;;;;;;;;;;771483;180;617490;-58
2022/07/27 08:55:46;;;;;;;7.13;3.57;;;;;;;;;;782036;180;626050;-57
2022/07/27 08:58:12;;;;;;;4.20;3.33;;;;;;;;;;779935;179;634570;-56
2022/07/27 09:00:38;;;;;;;5.30;3.37;;;;;;;;;;779379;176;627430;-56
2022/07/27 09:03:04;;;;;;;5.40;4.10;;;;;;;;;;771116;181;629892;-57
2022/07/27 09:05:30;;;;;;;4.40;3.30;;;;;;;;;;779282;180;628765;-58
2022/07/27 09:08:11;;;;;;;3.30;2.67;;;;;;;;;;776819;180;657076;-58
2022/07/27 09:10:37;;;;;;;4.87;3.50;;;;;;;;;;777504;177;622319;-58
2022/07/27 09:13:09;;;;;;;5.83;3.20;;;;;;;;;;759840;184;716918;-58
2022/07/27 09:15:35;;;;;;;4.53;3.20;;;;;;;;;;783825;180;629483;-56
2022/07/27 09:18:01;;;;;;;6.10;3.77;;;;;;;;;;779909;180;631881;-58
2022/07/27 09:20:27;;;;;;;5.90;3.23;;;;;;;;;;769887;180;629045;-54
2022/07/27 09:22:52;;;;;;;5.50;3.27;;;;;;;;;;767857;180;627696;-55
2022/07/27 09:25:19;;;;;;;6.37;4.47;;;;;;;;;;768089;177;914676;-57
2022/07/27 09:27:47;;;;;;;7.30;4.60;;;;;;;;;;775413;180;722082;-58
2022/07/27 09:30:11;;;;;;;4.43;3.50;;;;;;;;;;775228;178;629828;-57
2022/07/27 09:32:37;;;;;;;15.63;3.90;;;;;;;;;;780923;180;629950;-54
2022/07/27 09:35:08;;;;;;;4.80;3.80;;;;;;;;;;772675;178;628830;-54
2022/07/27 09:37:34;;;;;;;7.53;3.47;;;;;;;;;;775713;177;641403;-58
2022/07/27 09:40:06;;;;;;;3.63;2.97;;;;;;;;;;781748;180;626601;-58
2022/07/27 09:42:32;;;;;;;8.63;2.80;;;;;;;;;;779926;180;614399;-57
2022/07/27 09:44:57;;;;;;;5.23;2.80;;;;;;;;;;777893;181;644063;-57
2022/07/27 09:47:25;;;;;;;4.63;3.47;;;;;;;;;;778969;180;621064;-57
2022/07/27 09:49:49;;;;;;;4.33;2.83;;;;;;;;;;782933;181;623603;-57
2022/07/27 09:52:21;;;;;;;4.60;2.83;;;;;;;;;;778243;180;625825;-58
2022/07/27 09:54:47;;;;;;;5.47;3.30;;;;;;;;;;770927;181;824807;-56
2022/07/27 09:57:12;;;;;;;5.63;3.63;;;;;;;;;;765615;184;625080;-56
2022/07/27 09:59:38;;;;;;;3.63;3.10;;;;;;;;;;769131;181;638457;-56
2022/07/27 10:02:04;;;;;;;4.60;3.40;;;;;;;;;;776412;179;625535;-56
2022/07/27 10:04:30;;;;;;;6.43;3.27;;;;;;;;;;775702;180;621451;-58
2022/07/27 10:06:56;;;;;;;7.77;4.10;;;;;;;;;;781203;180;618165;-56
2022/07/27 10:09:22;;;;;;;7.53;3.57;;;;;;;;;;774296;179;867287;-56
2022/07/27 10:11:48;;;;;;;7.40;4.40;;;;;;;;;;771759;180;917445;-56
2022/07/27 10:14:13;;;;;;;4.57;3.90;;;;;;;;;;780553;180;815925;-58
2022/07/27 10:16:39;;;;;;;11.13;5.30;;;;;;;;;;776794;178;821449;-58
2022/07/27 10:19:08;;;;;;;8.20;3.80;;;;;;;;;;777262;180;620668;-59
2022/07/27 10:21:34;;;;;;;7.47;5.23;;;;;;;;;;776657;178;820127;-61
2022/07/27 10:24:00;;;;;;;7.03;3.83;;;;;;;;;;773822;181;817667;-56
2022/07/27 10:26:26;;;;;;;7.03;4.30;;;;;;;;;;765289;181;919037;-55
2022/07/27 10:28:52;;;;;;;10.23;4.00;;;;;;;;;;775673;178;914700;-58
2022/07/27 10:31:18;;;;;;;6.63;4.30;;;;;;;;;;781413;180;628600;-57
2022/07/27 10:33:44;;;;;;;5.43;3.80;;;;;;;;;;777186;180;824239;-56
2022/07/27 10:36:24;;;;;;;8.30;4.67;;;;;;;;;;775026;180;817760;-56
2022/07/27 10:38:50;;;;;;;5.90;4.50;;;;;;;;;;766327;180;628187;-58
2022/07/27 10:41:21;;;;;;;5.00;4.00;;;;;;;;;;778884;180;623947;-57
2022/07/27 10:43:46;;;;;;;6.37;4.20;;;;;;;;;;779476;180;633326;-57
2022/07/27 10:46:12;;;;;;;5.10;3.60;;;;;;;;;;776249;180;630622;-60
2022/07/27 10:48:38;;;;;;;5.97;4.20;;;;;;;;;;775713;182;628385;-57
2022/07/27 10:51:04;;;;;;;6.00;4.20;;;;;;;;;;776936;181;625770;-58
2022/07/27 10:53:34;;;;;;;8.40;4.63;;;;;;;;;;767125;181;906270;-58
2022/07/27 10:56:00;;;;;;;5.03;3.90;;;;;;;;;;778022;180;908811;-56
2022/07/27 10:58:40;;;;;;;4.63;4.03;;;;;;;;;;775274;181;711150;-59
2022/07/27 11:01:07;;;;;;;5.17;4.53;;;;;;;;;;783133;180;614096;-58
2022/07/27 11:03:32;;;;;;;5.87;4.47;;;;;;;;;;778573;178;641171;-58
2022/07/27 11:06:02;;;;;;;8.43;5.80;;;;;;;;;;776906;177;620814;-57
2022/07/27 11:08:28;;;;;;;8.40;4.87;;;;;;;;;;776847;180;620370;-58
2022/07/27 11:10:54;;;;;;;6.90;4.97;;;;;;;;;;781931;180;621371;-56
2022/07/27 11:13:20;;;;;;;7.60;4.87;;;;;;;;;;764100;181;914370;-58
2022/07/27 11:15:50;;;;;;;6.33;4.57;;;;;;;;;;772821;181;630333;-59
2022/07/27 11:18:16;;;;;;;5.53;4.17;;;;;;;;;;782373;180;619120;-58
2022/07/27 11:20:41;;;;;;;4.90;4.00;;;;;;;;;;776522;179;717880;-56
2022/07/27 11:23:13;;;;;;;6.87;4.17;;;;;;;;;;774950;180;919670;-59
2022/07/27 11:25:39;;;;;;;5.83;4.57;;;;;;;;;;779607;177;628994;-57
2022/07/27 11:28:06;;;;;;;6.90;4.07;;;;;;;;;;776197;181;625697;-59
2022/07/27 11:30:31;;;;;;;5.23;4.43;;;;;;;;;;780776;180;614927;-60
2022/07/27 11:32:56;;;;;;;7.93;3.80;;;;;;;;;;777215;181;820245;-59
2022/07/27 11:35:22;;;;;;;4.97;3.53;;;;;;;;;;778173;181;627253;-59
2022/07/27 11:37:54;;;;;;;7.40;4.03;;;;;;;;;;778134;177;640993;-58
2022/07/27 11:40:20;;;;;;;7.10;4.23;;;;;;;;;;774599;178;628878;-57
2022/07/27 11:42:47;;;;;;;7.13;3.73;;;;;;;;;;776834;181;622139;-61
2022/07/27 11:45:12;;;;;;;6.40;4.57;;;;;;;;;;771943;180;816863;-57
2022/07/27 11:47:37;;;;;;;10.70;3.67;;;;;;;;;;777348;179;619456;-58
2022/07/27 11:50:06;;;;;;;6.18;4.30;;;;;;;;;;764538;184;917707;-58
2022/07/27 11:52:31;;;;;;;5.30;3.60;;;;;;;;;;780230;180;919712;-58
2022/07/27 11:54:57;;;;;;;5.17;4.27;;;;;;;;;;777348;178;813945;-59
2022/07/27 11:57:23;;;;;;;5.93;4.65;;;;;;;;;;770070;180;911059;-59
2022/07/27 11:59:49;;;;;;;10.07;4.40;;;;;;;;;;772884;179;919149;-60
2022/07/27 12:02:16;;;;;;;4.40;3.77;;;;;;;;;;774150;180;892061;-57
2022/07/27 12:04:41;;;;;;;5.93;4.20;;;;;;;;;;770354;180;915846;-58
2022/07/27 12:07:10;;;;;;;6.23;4.20;;;;;;;;;;766304;180;920063;-58
2022/07/27 12:09:35;;;;;;;5.77;4.30;;;;;;;;;;768335;180;919310;-58
2022/07/27 12:12:16;;;;;;;7.27;4.67;;;;;;;;;;773162;180;919019;-57
2022/07/27 12:14:42;;;;;;;10.40;4.60;;;;;;;;;;772205;180;924140;-59
2022/07/27 12:17:09;;;;;;;6.40;4.40;;;;;;;;;;770246;180;921613;-59
2022/07/27 12:19:35;;;;;;;4.60;4.20;;;;;;;;;;777588;180;919236;-57
2022/07/27 12:22:01;;;;;;;7.07;4.17;;;;;;;;;;772927;181;919394;-58
2022/07/27 12:24:34;;;;;;;7.97;3.90;;;;;;;;;;774805;177;816261;-59
2022/07/27 12:27:01;;;;;;;6.43;4.93;;;;;;;;;;774453;179;817549;-58
2022/07/27 12:29:27;;;;;;;5.40;4.40;;;;;;;;;;778246;178;913528;-58
2022/07/27 12:31:53;;;;;;;7.37;5.10;;;;;;;;;;772655;179;819214;-57
2022/07/27 12:34:18;;;;;;;8.47;6.73;;;;;;;;;;772474;179;919431;-56
2022/07/27 12:36:44;;;;;;;11.10;5.40;;;;;;;;;;776284;179;917594;-58
2022/07/27 12:39:16;;;;;;;6.70;4.30;;;;;;;;;;775259;180;918906;-59
2022/07/27 12:41:42;;;;;;;11.93;4.73;;;;;;;;;;762659;182;816499;-57
2022/07/27 12:44:08;;;;;;;6.60;4.10;;;;;;;;;;769679;181;817301;-58
2022/07/27 12:46:34;;;;;;;4.93;3.87;;;;;;;;;;777677;180;816849;-59
2022/07/27 12:48:59;;;;;;;6.10;5.00;;;;;;;;;;777918;179;819983;-56
2022/07/27 12:51:25;;;;;;;6.83;4.83;;;;;;;;;;759558;184;920393;-59
2022/07/27 12:53:51;;;;;;;6.40;5.77;;;;;;;;;;775261;180;912974;-57
2022/07/27 12:56:17;;;;;;;7.77;5.37;;;;;;;;;;769657;179;920188;-58
2022/07/27 12:58:48;;;;;;;6.13;4.37;;;;;;;;;;775884;180;918750;-58
2022/07/27 13:01:14;;;;;;;6.32;5.75;;;;;;;;;;769475;180;912469;-58
2022/07/27 13:03:40;;;;;;;7.00;4.60;;;;;;;;;;771288;181;916422;-58
2022/07/27 13:06:06;;;;;;;10.20;4.50;;;;;;;;;;771599;181;916740;-57
2022/07/27 13:08:32;;;;;;;6.40;5.10;;;;;;;;;;774264;178;919263;-59
2022/07/27 13:10:59;;;;;;;5.60;4.93;;;;;;;;;;777682;181;919064;-59
2022/07/27 13:13:24;;;;;;;7.33;4.90;;;;;;;;;;772136;180;920094;-58
2022/07/27 13:15:49;;;;;;;5.60;4.77;;;;;;;;;;764031;180;920082;-58
2022/07/27 13:18:15;;;;;;;7.17;5.37;;;;;;;;;;765755;181;817057;-59
2022/07/27 13:20:41;;;;;;;7.87;4.95;;;;;;;;;;772924;180;918297;-59
2022/07/27 13:23:07;;;;;;;7.13;5.07;;;;;;;;;;767391;181;915481;-58
2022/07/27 13:25:33;;;;;;;7.80;5.13;;;;;;;;;;772697;180;816881;-57
2022/07/27 13:27:59;;;;;;;6.93;4.53;;;;;;;;;;765538;182;922435;-59
2022/07/27 13:30:25;;;;;;;7.07;4.67;;;;;;;;;;770692;180;919401;-59
2022/07/27 13:32:51;;;;;;;6.10;5.13;;;;;;;;;;772844;180;917829;-59
2022/07/27 13:35:16;;;;;;;8.00;5.20;;;;;;;;;;775984;180;920328;-59
2022/07/27 13:37:42;;;;;;;7.90;4.70;;;;;;;;;;774227;178;769354;-58
2022/07/27 13:40:09;;;;;;;5.35;4.25;;;;;;;;;;773429;180;919433;-58
2022/07/27 13:42:35;;;;;;;7.93;4.90;;;;;;;;;;774707;180;921816;-58
2022/07/27 13:45:00;;;;;;;7.80;5.07;;;;;;;;;;768016;182;920426;-59
2022/07/27 13:47:27;;;;;;;5.73;4.47;;;;;;;;;;779789;179;624462;-59
2022/07/27 13:49:53;;;;;;;6.53;5.13;;;;;;;;;;767460;182;625919;-59
2022/07/27 13:52:19;;;;;;;19.90;5.10;;;;;;;;;;780229;180;915272;-57
2022/07/27 13:54:45;;;;;;;7.00;4.70;;;;;;;;;;770444;178;915607;-58
2022/07/27 13:57:10;;;;;;;7.47;5.40;;;;;;;;;;753612;180;873422;-58
2022/07/27 13:59:36;;;;;;;6.23;5.57;;;;;;;;;;779870;180;914700;-58
2022/07/27 14:02:02;;;;;;;6.67;4.73;;;;;;;;;;766119;179;922438;-57
2022/07/27 14:04:29;;;;;;;5.60;4.90;;;;;;;;;;771065;180;924671;-57
2022/07/27 14:06:55;;;;;;;11.53;4.93;;;;;;;;;;755762;182;921421;-59
2022/07/27 14:10:30;;;;;;;5.30;4.43;;;;;;;;;;776900;180;919502;-58
2022/07/27 14:11:47;;;;;;;6.27;5.00;;;;;;;;;;772645;180;919603;-57
2022/07/27 14:14:12;;;;;;;6.70;4.75;;;;;;;;;;776393;178;920095;-57
2022/07/27 14:16:38;;;;;;;7.50;5.43;;;;;;;;;;775711;181;918782;-57